Contact Us:
Email: info@sawbill.com
Phone: (218)663-7150
Fax: (218)663-7980
Mail: 4620 Sawbill Trail
Box 2129
Tofte, MN 55615


Powered by
Movable Type 3.15
 
Sawbill Weather History Archives: February 2010
Current Sawbill Weather History | « January 2010 | March 2010 »


Date

High
Temperature

Low
Temperature

Barometric
Pressure

Relative
Humidity 7AM

9 AM
Temperature

Moisture

Snow

2/28/10 34 6 30.50 57% 11 0
2/27/10 33 12 30.36 47% 21 0
2/26/10 28 -7 30.30 40% 13 0
2/25/10 23 -19 30.39 39% -7 0
2/24/10 14 -19 30.39 38% -19 0
2/23/10 20 -6 30.30 57% -6 Trace Trace
2/22/10 28 6 30.00 77% 15 Trace Trace
2/21/10 33 0 30.15 53% 7 0
2/20/10 32 -2 30.30 56% 3 0
2/19/10 31 -4 30.30 47% 2 0
2/18/10 34 -12 30.41 76% -4 0
2/17/10 34 -8 30.34 76% -8 0
2/16/10 27 15 30.21 52% 18 0
2/15/10 26 13 30.21 49% 15 Trace Trace
2/14/10 21 6 30.09 57% 17 .13" 1.5"
2/13/10 19 -11 30.15 60% 6 0
2/12/10 22 -10 30.12 61% -10 0
2/11/10 20 -13 30.18 59% -9 0
2/10/10 19 -13 30.30 59% -13 0
2/9/10 15 0 30.33 58% 3 0
2/8/10 22 0 30.42 67% 0 0
2/7/10 23 -1 30.45 74% 14 .24" 3"
2/6/10 26 -3 30.48 72% 10 Trace Trace
2/5/10 23 -3 30.45 68% -1 0
2/4/10 24 -3 30.47 78% 18 0
2/3/10 20 -13 30.38 81% 12 Trace Trace
2/2/10 12 -6 30.33 81% -2 Trace Trace
2/1/10 9 -7 30.24 81% -6 0
 


Home I Trip Planning I Rentals and Outfitting I Reservations I Campgrounds I Sawbill Store I Sawbill News I Contact

© 1997 - 2017, Sawbill Canoe Outfitters, Inc. I Privacy Policy